createdAt,value
2023-05-19T00:02:20.901Z,12.10
2023-05-19T00:04:48.272Z,12.04
2023-05-19T00:07:17.927Z,11.93
2023-05-19T00:09:44.657Z,11.81
2023-05-19T00:12:11.988Z,11.80
2023-05-19T00:14:38.796Z,11.70
2023-05-19T00:17:05.590Z,11.72
2023-05-19T00:19:32.433Z,11.61
2023-05-19T00:21:59.193Z,11.64
2023-05-19T00:24:25.786Z,11.59
2023-05-19T00:26:52.229Z,11.70
2023-05-19T00:29:19.383Z,11.72
2023-05-19T00:31:46.210Z,11.48
2023-05-19T00:34:12.784Z,11.66
2023-05-19T00:36:39.281Z,11.62
2023-05-19T00:39:05.738Z,11.69
2023-05-19T00:41:32.217Z,11.75
2023-05-19T00:43:58.767Z,11.61
2023-05-19T00:46:25.373Z,11.59
2023-05-19T00:48:51.812Z,11.58
2023-05-19T00:51:18.523Z,11.58
2023-05-19T00:53:49.008Z,11.55
2023-05-19T00:56:19.385Z,11.45
2023-05-19T00:58:46.006Z,11.22
2023-05-19T01:01:16.906Z,11.22
2023-05-19T01:03:43.924Z,11.17
2023-05-19T01:06:12.038Z,11.06
2023-05-19T01:08:39.119Z,11.17
2023-05-19T01:11:06.836Z,11.07
2023-05-19T01:13:34.515Z,11.08
2023-05-19T01:16:12.728Z,11.11
2023-05-19T01:18:47.726Z,11.08
2023-05-19T01:21:32.344Z,11.09
2023-05-19T01:24:18.255Z,10.96
2023-05-19T01:27:06.482Z,10.91
2023-05-19T01:29:51.481Z,10.92
2023-05-19T01:32:19.900Z,10.92
2023-05-19T01:34:46.972Z,10.79
2023-05-19T01:37:15.301Z,10.72
2023-05-19T01:39:43.322Z,10.83
2023-05-19T01:42:10.939Z,10.76
2023-05-19T01:44:37.873Z,10.65
2023-05-19T01:47:04.816Z,10.75
2023-05-19T01:49:31.352Z,10.83
2023-05-19T01:51:57.815Z,10.76
2023-05-19T01:54:24.400Z,10.81
2023-05-19T01:57:12.333Z,10.78
2023-05-19T01:59:52.456Z,10.78
2023-05-19T02:02:43.954Z,10.77
2023-05-19T02:05:19.125Z,10.72
2023-05-19T02:07:53.755Z,10.61
2023-05-19T02:10:28.128Z,10.62
2023-05-19T02:12:56.572Z,10.69
2023-05-19T02:15:30.788Z,10.70
2023-05-19T02:18:00.170Z,10.47
2023-05-19T02:20:26.801Z,10.55
2023-05-19T02:22:53.354Z,10.39
2023-05-19T02:25:19.817Z,10.39
2023-05-19T02:27:46.376Z,10.45
2023-05-19T02:30:12.948Z,10.43
2023-05-19T02:32:39.857Z,10.24
2023-05-19T02:35:06.690Z,10.35
2023-05-19T02:37:33.167Z,10.31
2023-05-19T02:39:59.661Z,10.11
2023-05-19T02:42:26.100Z,10.16
2023-05-19T02:44:54.196Z,10.26
2023-05-19T02:47:20.716Z,10.14
2023-05-19T02:49:47.198Z,10.23
2023-05-19T02:52:13.720Z,10.18
2023-05-19T02:54:40.209Z,10.17
2023-05-19T02:57:06.849Z,10.20
2023-05-19T02:59:33.513Z,10.09
2023-05-19T03:02:01.453Z,10.00
2023-05-19T03:04:29.232Z,10.12
2023-05-19T03:06:56.043Z,10.05
2023-05-19T03:09:22.490Z,10.07
2023-05-19T03:11:48.963Z,9.97
2023-05-19T03:14:15.481Z,10.04
2023-05-19T03:16:42.204Z,9.97
2023-05-19T03:19:09.645Z,9.87
2023-05-19T03:21:36.696Z,9.78
2023-05-19T03:24:03.442Z,9.63
2023-05-19T03:26:29.926Z,9.56
2023-05-19T03:28:56.432Z,9.48
2023-05-19T03:31:22.949Z,9.47
2023-05-19T03:33:49.508Z,9.57
2023-05-19T03:36:16.049Z,9.59
2023-05-19T03:38:42.483Z,9.50
2023-05-19T03:41:08.926Z,9.52
2023-05-19T03:43:35.456Z,9.56
2023-05-19T03:46:02.146Z,9.31
2023-05-19T03:48:30.939Z,9.22
2023-05-19T03:50:58.025Z,9.27
2023-05-19T03:53:24.450Z,9.25
2023-05-19T03:55:50.900Z,9.34
2023-05-19T03:58:17.443Z,9.38
2023-05-19T04:00:43.912Z,9.38
2023-05-19T04:03:10.783Z,9.31
2023-05-19T04:05:37.481Z,9.34
2023-05-19T04:08:04.127Z,9.23
2023-05-19T04:10:30.913Z,9.26
2023-05-19T04:12:57.517Z,9.23
2023-05-19T04:15:24.016Z,9.08
2023-05-19T04:17:50.507Z,9.24
2023-05-19T04:20:17.086Z,9.13
2023-05-19T04:22:43.533Z,9.16
2023-05-19T04:25:10.246Z,9.34
2023-05-19T04:27:38.853Z,9.49
2023-05-19T04:30:06.443Z,9.57
2023-05-19T04:32:33.313Z,9.75
2023-05-19T04:34:59.881Z,9.80
2023-05-19T04:37:26.584Z,9.98
2023-05-19T04:39:54.197Z,10.67
2023-05-19T04:42:20.817Z,11.27
2023-05-19T04:44:49.085Z,11.41
2023-05-19T04:47:15.667Z,11.13
2023-05-19T04:49:42.270Z,11.35
2023-05-19T04:52:12.699Z,11.63
2023-05-19T04:54:39.826Z,11.73
2023-05-19T04:57:06.420Z,11.69
2023-05-19T04:59:33.104Z,11.43
2023-05-19T05:01:59.674Z,11.64
2023-05-19T05:04:26.196Z,11.66
2023-05-19T05:06:52.681Z,11.72
2023-05-19T05:09:19.876Z,11.95
2023-05-19T05:11:46.739Z,12.30
2023-05-19T05:14:13.500Z,12.29
2023-05-19T05:16:40.750Z,12.40
2023-05-19T05:19:07.586Z,12.30
2023-05-19T05:21:34.675Z,12.53
2023-05-19T05:24:01.401Z,12.61
2023-05-19T05:26:30.757Z,12.77
2023-05-19T05:28:57.242Z,12.95
2023-05-19T05:31:23.700Z,12.73
2023-05-19T05:33:50.345Z,12.92
2023-05-19T05:36:16.805Z,13.13
2023-05-19T05:38:43.241Z,13.04
2023-05-19T05:41:09.821Z,13.33
2023-05-19T05:43:36.311Z,13.17
2023-05-19T05:46:02.833Z,13.31
2023-05-19T05:48:29.640Z,13.59
2023-05-19T05:50:57.346Z,13.76
2023-05-19T05:53:25.958Z,13.81
2023-05-19T05:55:53.583Z,13.99
2023-05-19T05:58:21.234Z,14.09
2023-05-19T06:00:49.257Z,13.94
2023-05-19T06:03:16.899Z,13.86
2023-05-19T06:05:43.591Z,13.70
2023-05-19T06:08:10.100Z,14.02
2023-05-19T06:10:38.678Z,14.01
2023-05-19T06:13:05.228Z,14.25
2023-05-19T06:15:31.783Z,14.49
2023-05-19T06:17:59.058Z,14.68
2023-05-19T06:20:25.706Z,14.64
2023-05-19T06:22:52.190Z,14.95
2023-05-19T06:25:18.799Z,14.78
2023-05-19T06:27:45.330Z,15.25
2023-05-19T06:30:12.742Z,15.40
2023-05-19T06:32:39.265Z,15.51
2023-05-19T06:35:06.180Z,15.48
2023-05-19T06:37:32.690Z,15.82
2023-05-19T06:39:59.303Z,16.04
2023-05-19T06:42:25.975Z,15.76
2023-05-19T06:44:53.170Z,15.90
2023-05-19T06:47:19.988Z,16.22
2023-05-19T06:49:46.598Z,16.16
2023-05-19T06:52:13.058Z,16.01
2023-05-19T06:54:39.620Z,16.00
2023-05-19T06:57:06.401Z,16.44
2023-05-19T06:59:32.930Z,16.43
2023-05-19T07:02:01.538Z,16.32
2023-05-19T07:04:28.073Z,16.64
2023-05-19T07:06:54.950Z,16.93
2023-05-19T07:09:21.433Z,16.94
2023-05-19T07:11:48.470Z,17.05
2023-05-19T07:14:17.644Z,17.15
2023-05-19T07:16:44.255Z,17.33
2023-05-19T07:19:10.831Z,17.50
2023-05-19T07:21:37.348Z,17.43
2023-05-19T07:24:04.011Z,17.57
2023-05-19T07:26:30.556Z,17.46
2023-05-19T07:28:57.854Z,17.69
2023-05-19T07:31:24.417Z,17.94
2023-05-19T07:33:53.009Z,17.73
2023-05-19T07:36:20.894Z,17.58
2023-05-19T07:38:47.452Z,18.01
2023-05-19T07:41:14.100Z,18.01
2023-05-19T07:43:40.829Z,17.93
2023-05-19T07:46:07.723Z,18.52
2023-05-19T07:48:34.227Z,18.88
2023-05-19T07:51:00.715Z,18.56
2023-05-19T07:53:28.060Z,18.64
2023-05-19T07:55:55.869Z,18.26
2023-05-19T07:58:23.883Z,18.29
2023-05-19T08:00:50.451Z,18.30
2023-05-19T08:03:18.267Z,18.30
2023-05-19T08:05:45.490Z,18.30
2023-05-19T08:08:12.750Z,18.44
2023-05-19T08:10:43.319Z,18.55
2023-05-19T08:13:09.748Z,18.80
2023-05-19T08:15:39.229Z,18.78
2023-05-19T08:18:05.755Z,18.71
2023-05-19T08:20:32.882Z,18.40
2023-05-19T08:22:59.610Z,18.31
2023-05-19T08:25:26.088Z,18.18
2023-05-19T08:27:52.552Z,18.05
2023-05-19T08:30:19.073Z,18.59
2023-05-19T08:32:45.634Z,18.45
2023-05-19T08:35:12.193Z,18.31
2023-05-19T08:37:38.808Z,18.48
2023-05-19T08:40:06.287Z,18.65
2023-05-19T08:42:33.178Z,18.97
2023-05-19T08:45:00.816Z,18.94
2023-05-19T08:47:27.926Z,18.94
2023-05-19T08:50:03.438Z,18.85
2023-05-19T08:52:38.318Z,19.32
2023-05-19T08:55:21.812Z,19.28
2023-05-19T08:57:49.198Z,19.20
2023-05-19T09:00:16.464Z,19.26
2023-05-19T09:02:50.679Z,19.50
2023-05-19T09:05:27.837Z,18.91
2023-05-19T09:07:55.018Z,19.12
2023-05-19T09:10:21.748Z,19.50
2023-05-19T09:12:49.579Z,19.44
2023-05-19T09:15:18.607Z,19.69
2023-05-19T09:17:48.238Z,19.67
2023-05-19T09:20:15.841Z,19.38
2023-05-19T09:22:45.244Z,19.32
2023-05-19T09:25:23.186Z,19.50
2023-05-19T09:27:50.526Z,19.08
2023-05-19T09:30:17.762Z,19.50
2023-05-19T09:32:44.863Z,19.54
2023-05-19T09:35:12.862Z,20.01
2023-05-19T09:37:40.647Z,19.70
2023-05-19T09:40:13.561Z,19.53
2023-05-19T09:42:41.331Z,19.77
2023-05-19T09:45:11.510Z,19.79
2023-05-19T09:47:40.264Z,19.84
2023-05-19T09:50:12.343Z,19.52
2023-05-19T09:52:39.550Z,19.30
2023-05-19T09:55:09.501Z,19.66
2023-05-19T09:57:37.479Z,20.00
2023-05-19T10:00:12.252Z,20.22
2023-05-19T10:02:43.096Z,20.30
2023-05-19T10:05:13.681Z,20.11
2023-05-19T10:07:40.574Z,20.02
2023-05-19T10:10:09.590Z,19.90
2023-05-19T10:12:37.233Z,19.99
2023-05-19T10:15:04.150Z,19.87
2023-05-19T10:17:30.897Z,20.10
2023-05-19T10:19:57.855Z,20.23
2023-05-19T10:22:24.383Z,20.04
2023-05-19T10:24:50.812Z,20.39
2023-05-19T10:27:18.039Z,20.88
2023-05-19T10:29:49.291Z,20.53
2023-05-19T10:32:19.986Z,20.47
2023-05-19T10:35:14.537Z,20.64
2023-05-19T10:37:55.367Z,20.41
2023-05-19T10:40:28.145Z,20.55
2023-05-19T10:43:01.288Z,20.52
2023-05-19T10:45:31.719Z,20.00
2023-05-19T10:47:58.410Z,20.11
2023-05-19T10:50:25.057Z,20.45
2023-05-19T10:52:56.053Z,20.31
2023-05-19T10:55:56.033Z,20.31
2023-05-19T10:58:44.381Z,20.79
2023-05-19T11:01:14.566Z,20.49
2023-05-19T11:03:47.324Z,20.57
2023-05-19T11:06:33.131Z,21.02
2023-05-19T11:09:01.409Z,20.56
2023-05-19T11:11:50.846Z,20.60
2023-05-19T11:14:22.951Z,20.44
2023-05-19T11:16:52.217Z,20.78
2023-05-19T11:19:27.919Z,20.56
2023-05-19T11:21:56.904Z,21.10
2023-05-19T11:24:42.245Z,20.43
2023-05-19T11:27:31.399Z,20.60
2023-05-19T11:30:06.536Z,20.79
2023-05-19T11:32:34.391Z,20.74
2023-05-19T11:35:01.777Z,20.95
2023-05-19T11:37:31.249Z,20.92
2023-05-19T11:39:58.091Z,21.21
2023-05-19T11:42:24.656Z,21.46
2023-05-19T11:44:57.874Z,21.60
2023-05-19T11:47:24.394Z,21.06
2023-05-19T11:49:54.758Z,21.13
2023-05-19T11:52:22.461Z,21.22
2023-05-19T11:54:51.539Z,20.95
2023-05-19T11:57:21.104Z,21.22
2023-05-19T11:59:52.345Z,21.52
2023-05-19T12:02:27.345Z,21.42
2023-05-19T12:04:54.724Z,21.43
2023-05-19T12:07:24.727Z,21.31
2023-05-19T12:09:52.261Z,21.23
2023-05-19T12:12:20.008Z,21.25
2023-05-19T12:14:47.688Z,21.46
2023-05-19T12:17:16.465Z,21.49
2023-05-19T12:19:48.959Z,21.77
2023-05-19T12:22:16.921Z,21.82
2023-05-19T12:24:44.439Z,21.94
2023-05-19T12:27:17.850Z,21.51
2023-05-19T12:29:52.670Z,21.93
2023-05-19T12:32:22.943Z,21.70
2023-05-19T12:34:49.971Z,22.07
2023-05-19T12:37:16.641Z,21.99
2023-05-19T12:39:43.715Z,21.95
2023-05-19T12:42:12.357Z,22.07
2023-05-19T12:44:42.543Z,22.03
2023-05-19T12:47:09.055Z,22.07
2023-05-19T12:49:35.620Z,21.57
2023-05-19T12:52:10.543Z,21.78
2023-05-19T12:54:40.350Z,21.97
2023-05-19T12:57:07.080Z,22.23
2023-05-19T12:59:38.877Z,21.52
2023-05-19T13:02:06.581Z,21.97
2023-05-19T13:04:33.278Z,22.29
2023-05-19T13:06:59.801Z,21.90
2023-05-19T13:09:27.864Z,22.14
2023-05-19T13:11:54.742Z,22.32
2023-05-19T13:14:24.520Z,22.14
2023-05-19T13:16:51.045Z,21.52
2023-05-19T13:19:25.518Z,22.20
2023-05-19T13:21:52.594Z,22.58
2023-05-19T13:24:19.049Z,22.65
2023-05-19T13:26:48.788Z,22.33
2023-05-19T13:29:15.394Z,21.95
2023-05-19T13:31:41.937Z,22.07
2023-05-19T13:34:08.526Z,22.10
2023-05-19T13:36:39.088Z,21.70
2023-05-19T13:39:05.936Z,22.12
2023-05-19T13:41:32.804Z,21.80
2023-05-19T13:43:59.631Z,21.96
2023-05-19T13:46:36.687Z,21.77
2023-05-19T13:49:11.084Z,21.85
2023-05-19T13:51:37.650Z,21.44
2023-05-19T13:54:04.939Z,21.80
2023-05-19T13:56:31.740Z,21.96
2023-05-19T13:58:59.915Z,22.13
2023-05-19T14:01:27.551Z,21.52
2023-05-19T14:03:54.132Z,21.82
2023-05-19T14:06:20.682Z,21.53
2023-05-19T14:08:47.158Z,21.71
2023-05-19T14:11:21.532Z,21.35
2023-05-19T14:13:52.663Z,21.84
2023-05-19T14:16:20.422Z,21.85
2023-05-19T14:18:47.098Z,21.95
2023-05-19T14:21:14.169Z,21.24
2023-05-19T14:23:40.711Z,21.44
2023-05-19T14:26:07.243Z,21.21
2023-05-19T14:28:33.840Z,21.14
2023-05-19T14:31:00.384Z,21.21
2023-05-19T14:33:26.874Z,21.31
2023-05-19T14:35:53.488Z,21.49
2023-05-19T14:38:19.935Z,21.54
2023-05-19T14:40:48.454Z,21.71
2023-05-19T14:43:14.949Z,21.51
2023-05-19T14:45:44.000Z,21.27
2023-05-19T14:48:13.678Z,21.44
2023-05-19T14:50:42.790Z,21.32
2023-05-19T14:53:09.532Z,21.32
2023-05-19T14:55:41.177Z,21.47
2023-05-19T14:58:15.895Z,21.42
2023-05-19T15:00:47.687Z,21.53
2023-05-19T15:03:17.044Z,21.12
2023-05-19T15:05:46.684Z,20.91
2023-05-19T15:08:13.313Z,21.31
2023-05-19T15:10:39.836Z,20.95
2023-05-19T15:13:06.287Z,21.14
2023-05-19T15:15:32.785Z,21.29
2023-05-19T15:17:59.455Z,21.11
2023-05-19T15:20:27.457Z,20.62
2023-05-19T15:22:55.851Z,20.79
2023-05-19T15:25:22.309Z,20.83
2023-05-19T15:27:48.895Z,20.78
2023-05-19T15:30:17.898Z,21.01
2023-05-19T15:32:44.392Z,20.86
2023-05-19T15:35:10.874Z,20.98
2023-05-19T15:37:37.330Z,20.79
2023-05-19T15:40:04.484Z,20.95
2023-05-19T15:42:30.982Z,20.97
2023-05-19T15:44:57.504Z,20.79
2023-05-19T15:47:23.946Z,20.87
2023-05-19T15:49:50.380Z,20.78
2023-05-19T15:52:16.976Z,20.87
2023-05-19T15:54:44.764Z,20.50
2023-05-19T15:57:11.297Z,20.46
2023-05-19T15:59:37.849Z,20.32
2023-05-19T16:02:04.420Z,20.31
2023-05-19T16:04:33.871Z,20.15
2023-05-19T16:07:00.400Z,19.99
2023-05-19T16:09:27.989Z,20.10
2023-05-19T16:11:58.338Z,20.02
2023-05-19T16:14:27.497Z,19.79
2023-05-19T16:16:54.044Z,19.89
2023-05-19T16:19:23.966Z,19.84
2023-05-19T16:21:53.352Z,19.88
2023-05-19T16:24:19.821Z,19.78
2023-05-19T16:26:46.418Z,19.57
2023-05-19T16:29:18.347Z,19.75
2023-05-19T16:31:50.368Z,19.67
2023-05-19T16:34:16.869Z,19.69
2023-05-19T16:36:43.349Z,19.84
2023-05-19T16:39:09.896Z,20.11
2023-05-19T16:41:36.649Z,19.99
2023-05-19T16:44:03.188Z,20.22
2023-05-19T16:46:31.484Z,20.57
2023-05-19T16:48:58.226Z,20.57
2023-05-19T16:51:24.711Z,20.40
2023-05-19T16:53:51.222Z,20.59
2023-05-19T16:56:17.723Z,20.81
2023-05-19T16:58:44.264Z,20.96
2023-05-19T17:01:11.905Z,20.99
2023-05-19T17:03:38.413Z,20.80
2023-05-19T17:06:04.916Z,20.45
2023-05-19T17:08:31.421Z,20.17
2023-05-19T17:10:57.856Z,20.08
2023-05-19T17:13:24.368Z,19.89
2023-05-19T17:15:52.563Z,19.96
2023-05-19T17:18:19.342Z,19.78
2023-05-19T17:20:45.815Z,19.67
2023-05-19T17:23:12.642Z,19.60
2023-05-19T17:25:39.090Z,19.89
2023-05-19T17:28:07.496Z,20.43
2023-05-19T17:30:34.727Z,20.53
2023-05-19T17:33:01.454Z,20.52
2023-05-19T17:35:28.607Z,20.77
2023-05-19T17:37:55.490Z,21.03
2023-05-19T17:40:22.053Z,21.53
2023-05-19T17:42:48.654Z,21.76
2023-05-19T17:45:15.372Z,21.68
2023-05-19T17:47:41.878Z,21.67
2023-05-19T17:50:09.046Z,21.85
2023-05-19T17:52:36.139Z,21.46
2023-05-19T17:55:03.032Z,21.19
2023-05-19T17:57:30.980Z,20.70
2023-05-19T17:59:57.721Z,20.73
2023-05-19T18:02:24.445Z,20.49
2023-05-19T18:04:51.083Z,20.10
2023-05-19T18:07:18.548Z,20.09
2023-05-19T18:09:46.386Z,20.21
2023-05-19T18:12:12.876Z,19.60
2023-05-19T18:14:39.620Z,19.46
2023-05-19T18:17:06.172Z,19.41
2023-05-19T18:19:32.638Z,19.34
2023-05-19T18:21:59.155Z,19.52
2023-05-19T18:24:25.726Z,19.51
2023-05-19T18:26:52.176Z,19.58
2023-05-19T18:29:18.669Z,19.59
2023-05-19T18:31:45.229Z,19.38
2023-05-19T18:34:12.150Z,19.49
2023-05-19T18:36:38.644Z,19.36
2023-05-19T18:39:05.130Z,19.34
2023-05-19T18:41:32.027Z,19.12
2023-05-19T18:44:01.368Z,19.24
2023-05-19T18:46:28.029Z,19.11
2023-05-19T18:48:54.573Z,19.03
2023-05-19T18:51:21.755Z,19.01
2023-05-19T18:53:50.065Z,19.12
2023-05-19T18:56:25.072Z,18.96
2023-05-19T18:58:52.273Z,18.85
2023-05-19T19:01:18.850Z,18.66
2023-05-19T19:03:48.365Z,18.71
2023-05-19T19:06:17.204Z,18.70
2023-05-19T19:08:44.384Z,18.74
2023-05-19T19:11:11.316Z,18.74
2023-05-19T19:13:38.323Z,18.79
2023-05-19T19:16:05.185Z,18.58
2023-05-19T19:18:31.774Z,18.66
2023-05-19T19:20:59.619Z,18.62
2023-05-19T19:23:26.135Z,18.62
2023-05-19T19:25:53.378Z,18.55
2023-05-19T19:28:19.848Z,18.56
2023-05-19T19:30:46.475Z,18.52
2023-05-19T19:33:13.010Z,18.49
2023-05-19T19:35:39.628Z,18.44
2023-05-19T19:38:06.119Z,18.56
2023-05-19T19:40:35.766Z,18.46
2023-05-19T19:43:02.378Z,18.36
2023-05-19T19:45:28.866Z,18.29
2023-05-19T19:47:55.477Z,18.41
2023-05-19T19:50:22.011Z,18.32
2023-05-19T19:52:48.542Z,18.24
2023-05-19T19:55:18.089Z,18.14
2023-05-19T19:57:47.057Z,18.21
2023-05-19T20:00:14.124Z,18.23
2023-05-19T20:02:51.697Z,18.17
2023-05-19T20:05:27.258Z,18.16
2023-05-19T20:07:54.009Z,18.26
2023-05-19T20:10:23.266Z,18.25
2023-05-19T20:12:50.587Z,18.17
2023-05-19T20:15:17.279Z,18.06
2023-05-19T20:17:46.073Z,18.02
2023-05-19T20:20:13.044Z,18.07
2023-05-19T20:22:39.592Z,18.11
2023-05-19T20:25:06.539Z,17.95
2023-05-19T20:27:35.770Z,17.93
2023-05-19T20:30:02.267Z,17.97
2023-05-19T20:32:28.796Z,17.95
2023-05-19T20:34:55.551Z,17.93
2023-05-19T20:37:22.337Z,17.93
2023-05-19T20:39:48.907Z,17.90
2023-05-19T20:42:15.436Z,17.78
2023-05-19T20:44:42.677Z,17.71
2023-05-19T20:47:09.173Z,17.69
2023-05-19T20:49:35.967Z,17.62
2023-05-19T20:52:02.452Z,17.67
2023-05-19T20:54:28.975Z,17.32
2023-05-19T20:56:55.555Z,17.51
2023-05-19T20:59:22.046Z,17.50
2023-05-19T21:01:48.660Z,17.44
2023-05-19T21:04:15.289Z,17.59
2023-05-19T21:06:41.817Z,17.51
2023-05-19T21:09:08.684Z,17.44
2023-05-19T21:11:35.539Z,17.48
2023-05-19T21:14:04.858Z,17.46
2023-05-19T21:16:31.876Z,17.34
2023-05-19T21:18:58.504Z,17.31
2023-05-19T21:21:25.313Z,17.17
2023-05-19T21:23:51.949Z,17.02
2023-05-19T21:26:18.407Z,17.18
2023-05-19T21:28:44.921Z,17.09
2023-05-19T21:31:11.539Z,17.08
2023-05-19T21:33:39.638Z,17.07
2023-05-19T21:36:06.372Z,17.03
2023-05-19T21:38:32.900Z,16.93
2023-05-19T21:40:59.402Z,17.09
2023-05-19T21:43:25.989Z,16.91
2023-05-19T21:45:52.556Z,16.97
2023-05-19T21:48:19.220Z,17.00
2023-05-19T21:50:45.738Z,16.94
2023-05-19T21:53:12.194Z,17.00
2023-05-19T21:55:39.338Z,17.01
2023-05-19T21:58:08.424Z,17.06
2023-05-19T22:00:36.682Z,17.05
2023-05-19T22:03:03.532Z,17.07
2023-05-19T22:05:33.788Z,17.01
2023-05-19T22:08:00.232Z,17.06
2023-05-19T22:10:26.723Z,17.03
2023-05-19T22:12:53.179Z,16.94
2023-05-19T22:15:19.698Z,16.95
2023-05-19T22:17:46.234Z,16.89
2023-05-19T22:20:12.912Z,16.92
2023-05-19T22:22:39.359Z,16.85
2023-05-19T22:25:07.041Z,16.88
2023-05-19T22:27:33.584Z,16.98
2023-05-19T22:30:00.043Z,16.85
2023-05-19T22:32:26.664Z,16.91
2023-05-19T22:34:53.229Z,16.90
2023-05-19T22:37:23.996Z,16.93
2023-05-19T22:39:51.131Z,16.82
2023-05-19T22:42:18.477Z,16.63
2023-05-19T22:44:45.787Z,16.65
2023-05-19T22:47:15.397Z,16.65
2023-05-19T22:49:42.396Z,16.69
2023-05-19T22:52:12.659Z,16.67
2023-05-19T22:54:39.471Z,16.53
2023-05-19T22:57:06.339Z,16.66
2023-05-19T22:59:32.995Z,16.60
2023-05-19T23:01:59.490Z,16.53
2023-05-19T23:04:28.942Z,16.49
2023-05-19T23:06:55.661Z,16.42
2023-05-19T23:09:22.170Z,16.36
2023-05-19T23:11:48.716Z,16.39
2023-05-19T23:14:15.283Z,16.36
2023-05-19T23:16:41.826Z,16.40
2023-05-19T23:19:08.324Z,16.44
2023-05-19T23:21:36.313Z,16.39
2023-05-19T23:24:02.840Z,16.38
2023-05-19T23:26:29.303Z,16.30
2023-05-19T23:28:58.578Z,16.32
2023-05-19T23:31:25.235Z,16.33
2023-05-19T23:33:51.747Z,16.29
2023-05-19T23:36:19.119Z,16.25
2023-05-19T23:38:45.718Z,16.26
2023-05-19T23:41:12.212Z,16.17
2023-05-19T23:43:39.271Z,16.20
2023-05-19T23:46:08.815Z,16.11
2023-05-19T23:48:36.521Z,16.22
2023-05-19T23:51:03.109Z,16.13
2023-05-19T23:53:32.881Z,16.29
2023-05-19T23:55:59.322Z,16.17
2023-05-19T23:58:25.932Z,16.24
